createdAt,value
2019-01-31T00:00:12.628Z,20.00
2019-01-31T00:01:12.625Z,20.00
2019-01-31T00:02:12.613Z,20.00
2019-01-31T00:03:12.598Z,20.00
2019-01-31T00:04:12.592Z,20.00
2019-01-31T00:05:12.611Z,20.00
2019-01-31T00:06:12.569Z,20.00
2019-01-31T00:07:12.553Z,20.00
2019-01-31T00:08:12.547Z,20.00
2019-01-31T00:09:12.535Z,20.00
2019-01-31T00:10:12.523Z,20.00
2019-01-31T00:11:12.551Z,24.00
2019-01-31T00:12:22.531Z,24.00
2019-01-31T00:13:12.495Z,24.00
2019-01-31T00:14:12.483Z,24.00
2019-01-31T00:15:12.478Z,24.00
2019-01-31T00:16:12.462Z,24.00
2019-01-31T00:17:12.491Z,20.00
2019-01-31T00:18:12.438Z,20.00
2019-01-31T00:19:12.432Z,20.00
2019-01-31T00:20:12.426Z,20.00
2019-01-31T00:21:12.414Z,20.00
2019-01-31T00:22:13.082Z,20.00
2019-01-31T00:23:12.426Z,20.00
2019-01-31T00:24:12.382Z,20.00
2019-01-31T00:25:12.381Z,20.00
2019-01-31T00:26:12.356Z,20.00
2019-01-31T00:27:12.353Z,20.00
2019-01-31T00:28:12.341Z,20.00
2019-01-31T00:29:12.432Z,20.00
2019-01-31T00:30:12.315Z,20.00
2019-01-31T00:31:12.306Z,20.00
2019-01-31T00:32:12.300Z,16.00
2019-01-31T00:33:12.284Z,16.00
2019-01-31T00:34:12.276Z,20.00
2019-01-31T00:35:12.302Z,16.00
2019-01-31T00:36:12.255Z,16.00
2019-01-31T00:37:12.247Z,16.00
2019-01-31T00:38:12.228Z,16.00
2019-01-31T00:39:12.221Z,16.00
2019-01-31T00:40:12.210Z,16.00
2019-01-31T00:41:12.371Z,20.00
2019-01-31T00:42:12.195Z,20.00
2019-01-31T00:43:24.104Z,32.00
2019-01-31T00:44:12.166Z,20.00
2019-01-31T00:45:12.164Z,32.00
2019-01-31T00:46:12.152Z,12.00
2019-01-31T00:47:12.312Z,28.00
2019-01-31T00:48:12.134Z,44.00
2019-01-31T00:49:12.122Z,20.00
2019-01-31T00:50:12.112Z,20.00
2019-01-31T00:51:12.094Z,24.00
2019-01-31T00:52:12.094Z,28.00
2019-01-31T00:53:12.169Z,20.00
2019-01-31T00:54:12.066Z,20.00
2019-01-31T00:55:12.055Z,76.00
2019-01-31T00:56:12.048Z,20.00
2019-01-31T00:57:12.042Z,20.00
2019-01-31T00:58:12.020Z,20.00
2019-01-31T00:59:12.056Z,28.00
2019-01-31T01:00:12.006Z,20.00
2019-01-31T01:01:11.989Z,20.00
2019-01-31T01:02:11.983Z,20.00
2019-01-31T01:03:11.978Z,20.00
2019-01-31T01:04:11.964Z,20.00
2019-01-31T01:05:12.620Z,20.00
2019-01-31T01:06:11.945Z,20.00
2019-01-31T01:07:11.935Z,20.00
2019-01-31T01:08:11.924Z,20.00
2019-01-31T01:09:11.919Z,20.00
2019-01-31T01:10:11.895Z,20.00
2019-01-31T01:11:11.910Z,20.00
2019-01-31T01:12:11.877Z,20.00
2019-01-31T01:13:11.869Z,20.00
2019-01-31T01:14:23.964Z,20.00
2019-01-31T01:15:11.853Z,20.00
2019-01-31T01:16:11.838Z,20.00
2019-01-31T01:17:11.865Z,20.00
2019-01-31T01:18:11.812Z,20.00
2019-01-31T01:19:11.808Z,20.00
2019-01-31T01:20:11.797Z,20.00
2019-01-31T01:21:11.784Z,20.00
2019-01-31T01:22:11.775Z,20.00
2019-01-31T01:23:11.807Z,20.00
2019-01-31T01:24:11.757Z,20.00
2019-01-31T01:25:11.740Z,20.00
2019-01-31T01:26:11.730Z,20.00
2019-01-31T01:27:11.721Z,20.00
2019-01-31T01:28:11.713Z,20.00
2019-01-31T01:29:11.731Z,20.00
2019-01-31T01:30:11.691Z,20.00
2019-01-31T01:31:11.683Z,20.00
2019-01-31T01:32:11.671Z,20.00
2019-01-31T01:33:11.659Z,20.00
2019-01-31T01:34:11.651Z,20.00
2019-01-31T01:35:11.678Z,20.00
2019-01-31T01:36:11.633Z,20.00
2019-01-31T01:37:11.614Z,20.00
2019-01-31T01:38:11.615Z,20.00
2019-01-31T01:39:18.980Z,20.00
2019-01-31T01:40:12.732Z,20.00
2019-01-31T01:41:11.583Z,20.00
2019-01-31T01:42:11.562Z,20.00
2019-01-31T01:43:11.555Z,20.00
2019-01-31T01:44:11.544Z,20.00
2019-01-31T01:45:23.204Z,20.00
2019-01-31T01:46:11.529Z,20.00
2019-01-31T01:47:11.510Z,20.00
2019-01-31T01:48:11.501Z,20.00
2019-01-31T01:49:11.494Z,20.00
2019-01-31T01:50:11.487Z,20.00
2019-01-31T01:51:11.643Z,20.00
2019-01-31T01:52:11.464Z,20.00
2019-01-31T01:53:11.447Z,20.00
2019-01-31T01:54:11.438Z,20.00
2019-01-31T01:55:11.433Z,20.00
2019-01-31T01:56:11.419Z,20.00
2019-01-31T01:57:11.453Z,20.00
2019-01-31T01:58:11.401Z,20.00
2019-01-31T01:59:11.386Z,20.00
2019-01-31T02:00:11.384Z,20.00
2019-01-31T02:01:11.373Z,20.00
2019-01-31T02:02:11.357Z,20.00
2019-01-31T02:03:11.385Z,20.00
2019-01-31T02:04:11.339Z,20.00
2019-01-31T02:05:11.323Z,20.00
2019-01-31T02:06:11.318Z,20.00
2019-01-31T02:07:11.313Z,16.00
2019-01-31T02:08:11.301Z,16.00
2019-01-31T02:09:11.325Z,16.00
2019-01-31T02:10:11.277Z,16.00
2019-01-31T02:11:11.260Z,16.00
2019-01-31T02:12:11.254Z,16.00
2019-01-31T02:13:12.153Z,16.00
2019-01-31T02:14:11.236Z,16.00
2019-01-31T02:15:11.252Z,16.00
2019-01-31T02:16:21.583Z,20.00
2019-01-31T02:17:11.206Z,20.00
2019-01-31T02:18:11.193Z,20.00
2019-01-31T02:19:11.180Z,20.00
2019-01-31T02:20:11.178Z,20.00
2019-01-31T02:21:11.182Z,20.00
2019-01-31T02:22:11.154Z,20.00
2019-01-31T02:23:11.146Z,16.00
2019-01-31T02:24:11.126Z,16.00
2019-01-31T02:25:11.114Z,16.00
2019-01-31T02:26:11.106Z,16.00
2019-01-31T02:27:11.137Z,16.00
2019-01-31T02:28:11.091Z,16.00
2019-01-31T02:29:11.079Z,16.00
2019-01-31T02:30:11.077Z,16.00
2019-01-31T02:31:11.069Z,16.00
2019-01-31T02:32:11.045Z,16.00
2019-01-31T02:33:11.184Z,16.00
2019-01-31T02:34:11.028Z,16.00
2019-01-31T02:35:11.018Z,16.00
2019-01-31T02:36:11.005Z,16.00
2019-01-31T02:37:10.995Z,20.00
2019-01-31T02:38:10.981Z,16.00
2019-01-31T02:39:11.012Z,16.00
2019-01-31T02:40:10.967Z,16.00
2019-01-31T02:41:10.952Z,16.00
2019-01-31T02:42:10.939Z,16.00
2019-01-31T02:43:10.929Z,16.00
2019-01-31T02:44:10.917Z,16.00
2019-01-31T02:45:10.947Z,16.00
2019-01-31T02:46:10.897Z,16.00
2019-01-31T02:47:21.358Z,16.00
2019-01-31T02:48:10.884Z,16.00
2019-01-31T02:49:10.872Z,16.00
2019-01-31T02:50:10.857Z,16.00
2019-01-31T02:51:10.892Z,20.00
2019-01-31T02:52:10.833Z,20.00
2019-01-31T02:53:10.829Z,20.00
2019-01-31T02:54:10.828Z,20.00
2019-01-31T02:55:10.810Z,20.00
2019-01-31T02:56:10.794Z,20.00
2019-01-31T02:57:10.822Z,20.00
2019-01-31T02:58:10.773Z,20.00
2019-01-31T02:59:10.771Z,20.00
2019-01-31T03:00:10.753Z,20.00
2019-01-31T03:01:10.742Z,20.00
2019-01-31T03:02:10.734Z,20.00
2019-01-31T03:03:10.766Z,20.00
2019-01-31T03:04:10.709Z,20.00
2019-01-31T03:05:10.700Z,20.00
2019-01-31T03:06:10.700Z,20.00
2019-01-31T03:07:10.681Z,20.00
2019-01-31T03:08:10.669Z,20.00
2019-01-31T03:09:10.700Z,20.00
2019-01-31T03:10:10.652Z,20.00
2019-01-31T03:11:10.652Z,20.00
2019-01-31T03:12:10.641Z,20.00
2019-01-31T03:13:10.618Z,20.00
2019-01-31T03:14:10.782Z,20.00
2019-01-31T03:15:10.726Z,20.00
2019-01-31T03:16:10.584Z,20.00
2019-01-31T03:17:10.581Z,20.00
2019-01-31T03:18:21.277Z,20.00
2019-01-31T03:19:11.205Z,20.00
2019-01-31T03:20:10.547Z,20.00
2019-01-31T03:21:10.709Z,20.00
2019-01-31T03:22:10.521Z,20.00
2019-01-31T03:23:10.524Z,20.00
2019-01-31T03:24:10.505Z,20.00
2019-01-31T03:25:10.493Z,20.00
2019-01-31T03:26:10.490Z,20.00
2019-01-31T03:27:10.522Z,20.00
2019-01-31T03:28:10.468Z,20.00
2019-01-31T03:29:10.452Z,20.00
2019-01-31T03:30:10.443Z,20.00
2019-01-31T03:31:10.431Z,20.00
2019-01-31T03:32:10.434Z,20.00
2019-01-31T03:33:10.462Z,20.00
2019-01-31T03:34:10.405Z,20.00
2019-01-31T03:35:10.385Z,20.00
2019-01-31T03:36:10.378Z,20.00
2019-01-31T03:37:10.372Z,20.00
2019-01-31T03:38:10.364Z,20.00
2019-01-31T03:39:10.395Z,20.00
2019-01-31T03:40:10.336Z,20.00
2019-01-31T03:41:10.322Z,20.00
2019-01-31T03:42:10.353Z,20.00
2019-01-31T03:43:10.305Z,20.00
2019-01-31T03:44:10.293Z,20.00
2019-01-31T03:45:10.332Z,20.00
2019-01-31T03:46:10.277Z,20.00
2019-01-31T03:47:10.272Z,20.00
2019-01-31T03:48:10.263Z,20.00
2019-01-31T03:49:20.991Z,20.00
2019-01-31T03:50:10.234Z,20.00
2019-01-31T03:51:10.282Z,20.00
2019-01-31T03:52:10.211Z,20.00
2019-01-31T03:53:10.205Z,20.00
2019-01-31T03:54:10.194Z,20.00
2019-01-31T03:55:10.177Z,20.00
2019-01-31T03:56:10.167Z,20.00
2019-01-31T03:57:10.195Z,20.00
2019-01-31T03:58:10.153Z,20.00
2019-01-31T03:59:10.139Z,20.00
2019-01-31T04:00:10.131Z,20.00
2019-01-31T04:01:10.114Z,20.00
2019-01-31T04:02:10.114Z,20.00
2019-01-31T04:03:10.138Z,20.00
2019-01-31T04:04:10.086Z,20.00
2019-01-31T04:05:10.091Z,20.00
2019-01-31T04:06:10.064Z,20.00
2019-01-31T04:07:10.053Z,20.00
2019-01-31T04:08:10.049Z,20.00
2019-01-31T04:09:10.074Z,20.00
2019-01-31T04:10:18.709Z,20.00
2019-01-31T04:11:11.016Z,20.00
2019-01-31T04:12:10.000Z,20.00
2019-01-31T04:13:10.001Z,20.00
2019-01-31T04:14:09.982Z,20.00
2019-01-31T04:15:10.013Z,20.00
2019-01-31T04:16:09.965Z,20.00
2019-01-31T04:17:09.952Z,20.00
2019-01-31T04:18:09.940Z,20.00
2019-01-31T04:19:09.929Z,20.00
2019-01-31T04:20:20.775Z,20.00
2019-01-31T04:21:09.912Z,20.00
2019-01-31T04:22:09.896Z,20.00
2019-01-31T04:23:09.900Z,20.00
2019-01-31T04:24:09.881Z,20.00
2019-01-31T04:25:09.872Z,20.00
2019-01-31T04:26:10.042Z,20.00
2019-01-31T04:27:09.849Z,20.00
2019-01-31T04:28:09.845Z,20.00
2019-01-31T04:29:09.828Z,20.00
2019-01-31T04:30:09.815Z,20.00
2019-01-31T04:31:09.807Z,20.00
2019-01-31T04:32:09.831Z,24.00
2019-01-31T04:33:09.793Z,20.00
2019-01-31T04:34:09.777Z,20.00
2019-01-31T04:35:09.783Z,20.00
2019-01-31T04:36:09.759Z,20.00
2019-01-31T04:37:09.740Z,20.00
2019-01-31T04:38:09.774Z,20.00
2019-01-31T04:39:09.730Z,20.00
2019-01-31T04:40:09.716Z,20.00
2019-01-31T04:41:09.713Z,20.00
2019-01-31T04:42:09.701Z,20.00
2019-01-31T04:43:09.685Z,20.00
2019-01-31T04:44:09.715Z,20.00
2019-01-31T04:45:09.662Z,20.00
2019-01-31T04:46:09.654Z,24.00
2019-01-31T04:47:09.641Z,20.00
2019-01-31T04:48:09.631Z,20.00
2019-01-31T04:49:09.620Z,20.00
2019-01-31T04:50:09.638Z,20.00
2019-01-31T04:51:19.832Z,24.00
2019-01-31T04:52:09.704Z,24.00
2019-01-31T04:53:09.578Z,24.00
2019-01-31T04:54:09.566Z,24.00
2019-01-31T04:55:09.560Z,20.00
2019-01-31T04:56:09.593Z,24.00
2019-01-31T04:57:09.530Z,20.00
2019-01-31T04:58:09.524Z,24.00
2019-01-31T04:59:09.515Z,20.00
2019-01-31T05:00:09.507Z,20.00
2019-01-31T05:01:09.498Z,24.00
2019-01-31T05:02:09.520Z,24.00
2019-01-31T05:03:09.470Z,24.00
2019-01-31T05:04:09.466Z,20.00
2019-01-31T05:05:09.461Z,20.00
2019-01-31T05:06:09.442Z,20.00
2019-01-31T05:07:09.436Z,20.00
2019-01-31T05:08:09.458Z,24.00
2019-01-31T05:09:09.418Z,20.00
2019-01-31T05:10:09.404Z,20.00
2019-01-31T05:11:09.387Z,20.00
2019-01-31T05:12:09.390Z,20.00
2019-01-31T05:13:09.364Z,20.00
2019-01-31T05:14:09.538Z,20.00
2019-01-31T05:15:09.347Z,20.00
2019-01-31T05:16:09.340Z,20.00
2019-01-31T05:17:09.338Z,20.00
2019-01-31T05:18:09.323Z,20.00
2019-01-31T05:19:09.310Z,16.00
2019-01-31T05:20:09.338Z,16.00
2019-01-31T05:21:09.286Z,20.00
2019-01-31T05:22:22.103Z,16.00
2019-01-31T05:23:09.266Z,16.00
2019-01-31T05:24:09.249Z,20.00
2019-01-31T05:25:09.240Z,20.00
2019-01-31T05:26:09.321Z,20.00
2019-01-31T05:27:09.224Z,20.00
2019-01-31T05:28:09.217Z,20.00
2019-01-31T05:29:09.203Z,20.00
2019-01-31T05:30:09.187Z,20.00
2019-01-31T05:31:09.188Z,20.00
2019-01-31T05:32:09.215Z,20.00
2019-01-31T05:33:09.164Z,20.00
2019-01-31T05:34:09.147Z,20.00
2019-01-31T05:35:09.139Z,20.00
2019-01-31T05:36:09.125Z,20.00
2019-01-31T05:37:09.120Z,20.00
2019-01-31T05:38:09.161Z,20.00
2019-01-31T05:39:09.108Z,20.00
2019-01-31T05:40:09.082Z,20.00
2019-01-31T05:41:09.077Z,20.00
2019-01-31T05:42:09.065Z,20.00
2019-01-31T05:43:09.057Z,20.00
2019-01-31T05:44:09.088Z,20.00
2019-01-31T05:45:09.031Z,20.00
2019-01-31T05:46:09.025Z,24.00
2019-01-31T05:47:09.016Z,20.00
2019-01-31T05:48:09.002Z,20.00
2019-01-31T05:49:09.002Z,24.00
2019-01-31T05:50:09.027Z,24.00
2019-01-31T05:51:08.974Z,20.00
2019-01-31T05:52:08.965Z,24.00
2019-01-31T05:53:19.303Z,20.00
2019-01-31T05:54:08.938Z,24.00
2019-01-31T05:55:08.934Z,20.00
2019-01-31T05:56:08.935Z,24.00
2019-01-31T05:57:08.908Z,24.00
2019-01-31T05:58:08.910Z,28.00
2019-01-31T05:59:08.891Z,28.00
2019-01-31T06:00:08.888Z,28.00
2019-01-31T06:01:08.888Z,32.00
2019-01-31T06:02:09.028Z,36.00
2019-01-31T06:03:08.845Z,36.00
2019-01-31T06:04:08.842Z,40.00
2019-01-31T06:05:08.830Z,40.00
2019-01-31T06:06:08.846Z,48.00
2019-01-31T06:07:11.099Z,48.00
2019-01-31T06:08:09.013Z,56.00
2019-01-31T06:09:08.781Z,60.00
2019-01-31T06:10:08.776Z,68.00
2019-01-31T06:11:08.787Z,72.00
2019-01-31T06:12:08.761Z,76.00
2019-01-31T06:13:08.743Z,84.00
2019-01-31T06:14:08.775Z,92.00
2019-01-31T06:15:08.721Z,100.00
2019-01-31T06:16:08.708Z,108.00
2019-01-31T06:17:08.700Z,116.00
2019-01-31T06:18:08.694Z,124.00
2019-01-31T06:19:08.680Z,136.00
2019-01-31T06:20:08.713Z,148.00
2019-01-31T06:21:08.658Z,156.00
2019-01-31T06:22:08.651Z,168.00
2019-01-31T06:23:08.640Z,176.00
2019-01-31T06:24:18.849Z,184.00
2019-01-31T06:25:08.628Z,196.00
2019-01-31T06:26:08.645Z,208.00
2019-01-31T06:27:08.598Z,220.00
2019-01-31T06:28:08.593Z,236.00
2019-01-31T06:29:08.578Z,248.00
2019-01-31T06:30:08.568Z,260.00
2019-01-31T06:31:08.569Z,272.00
2019-01-31T06:32:08.585Z,284.00
2019-01-31T06:33:08.531Z,304.00
2019-01-31T06:34:08.520Z,324.00
2019-01-31T06:35:08.524Z,340.00
2019-01-31T06:36:08.507Z,360.00
2019-01-31T06:37:08.502Z,376.00
2019-01-31T06:38:08.495Z,396.00
2019-01-31T06:39:08.577Z,420.00
2019-01-31T06:40:08.463Z,448.00
2019-01-31T06:41:18.185Z,472.00
2019-01-31T06:42:09.436Z,500.00
2019-01-31T06:43:08.434Z,524.00
2019-01-31T06:44:08.587Z,552.00
2019-01-31T06:45:08.421Z,576.00
2019-01-31T06:46:08.401Z,596.00
2019-01-31T06:47:08.393Z,624.00
2019-01-31T06:48:08.378Z,656.00
2019-01-31T06:49:08.383Z,676.00
2019-01-31T06:50:08.398Z,704.00
2019-01-31T06:51:08.358Z,728.00
2019-01-31T06:52:08.339Z,744.00
2019-01-31T06:53:08.347Z,776.00
2019-01-31T06:54:08.316Z,804.00
2019-01-31T06:55:20.822Z,836.00
2019-01-31T06:56:08.293Z,872.00
2019-01-31T06:57:08.281Z,916.00
2019-01-31T06:58:08.807Z,944.00
2019-01-31T06:59:08.260Z,968.00
2019-01-31T07:00:08.277Z,984.00
2019-01-31T07:01:08.276Z,1000.00
2019-01-31T07:02:08.240Z,1016.00
2019-01-31T07:03:08.230Z,1028.00
2019-01-31T07:04:10.990Z,1044.00
2019-01-31T07:05:08.198Z,1064.00
2019-01-31T07:06:08.192Z,1092.00
2019-01-31T07:07:08.215Z,1128.00
2019-01-31T07:08:08.170Z,1168.00
2019-01-31T07:09:08.157Z,1220.00
2019-01-31T07:10:08.144Z,1268.00
2019-01-31T07:11:08.136Z,1296.00
2019-01-31T07:12:08.132Z,1368.00
2019-01-31T07:13:08.293Z,1424.00
2019-01-31T07:14:08.117Z,1484.00
2019-01-31T07:15:08.150Z,1536.00
2019-01-31T07:16:08.092Z,1580.00
2019-01-31T07:17:08.073Z,1596.00
2019-01-31T07:18:08.069Z,1624.00
2019-01-31T07:19:08.103Z,1660.00
2019-01-31T07:20:08.047Z,1704.00
2019-01-31T07:21:08.034Z,1764.00
2019-01-31T07:22:08.031Z,1836.00
2019-01-31T07:23:08.017Z,1876.00
2019-01-31T07:24:08.013Z,1888.00
2019-01-31T07:25:08.173Z,1904.00
2019-01-31T07:26:19.057Z,1908.00
2019-01-31T07:27:07.972Z,1928.00
2019-01-31T07:28:07.955Z,1968.00
2019-01-31T07:29:08.119Z,2012.00
2019-01-31T07:30:07.940Z,2056.00
2019-01-31T07:31:08.368Z,2084.00
2019-01-31T07:32:07.916Z,2092.00
2019-01-31T07:33:07.910Z,2076.00
2019-01-31T07:34:07.904Z,2072.00
2019-01-31T07:35:07.911Z,2084.00
2019-01-31T07:36:07.876Z,2116.00
2019-01-31T07:37:07.909Z,2120.00
2019-01-31T07:38:07.863Z,2092.00
2019-01-31T07:39:07.853Z,2100.00
2019-01-31T07:40:07.840Z,2104.00
2019-01-31T07:41:07.823Z,2104.00
2019-01-31T07:42:07.814Z,2144.00
2019-01-31T07:43:07.984Z,2172.00
2019-01-31T07:44:07.793Z,2204.00
2019-01-31T07:45:07.778Z,2228.00
2019-01-31T07:46:07.771Z,2268.00
2019-01-31T07:47:07.764Z,2332.00
2019-01-31T07:48:07.759Z,2360.00
2019-01-31T07:49:07.777Z,2456.00
2019-01-31T07:50:07.725Z,2568.00
2019-01-31T07:51:07.728Z,2644.00
2019-01-31T07:52:07.707Z,2804.00
2019-01-31T07:53:07.698Z,2888.00
2019-01-31T07:54:07.689Z,2896.00
2019-01-31T07:55:07.824Z,2876.00
2019-01-31T07:56:07.669Z,2868.00
2019-01-31T07:57:18.690Z,2872.00
2019-01-31T07:58:07.647Z,2860.00
2019-01-31T07:59:07.634Z,2972.00
2019-01-31T08:00:07.628Z,3088.00
2019-01-31T08:01:07.655Z,3248.00
2019-01-31T08:02:07.957Z,3448.00
2019-01-31T08:03:07.595Z,3600.00
2019-01-31T08:04:07.581Z,3764.00
2019-01-31T08:05:07.577Z,3900.00
2019-01-31T08:06:07.566Z,3920.00
2019-01-31T08:07:07.587Z,4056.00
2019-01-31T08:08:07.542Z,4196.00
2019-01-31T08:09:07.532Z,4320.00
2019-01-31T08:10:07.519Z,4444.00
2019-01-31T08:11:07.519Z,4536.00
2019-01-31T08:12:07.509Z,4612.00
2019-01-31T08:13:07.521Z,4620.00
2019-01-31T08:14:07.481Z,4572.00
2019-01-31T08:15:07.815Z,4344.00
2019-01-31T08:16:07.487Z,4240.00
2019-01-31T08:17:07.443Z,4192.00
2019-01-31T08:18:07.440Z,4212.00
2019-01-31T08:19:07.477Z,4252.00
2019-01-31T08:20:07.421Z,4384.00
2019-01-31T08:21:07.405Z,4524.00
2019-01-31T08:22:07.391Z,4552.00
2019-01-31T08:23:07.392Z,4540.00
2019-01-31T08:24:09.543Z,4532.00
2019-01-31T08:25:07.406Z,4616.00
2019-01-31T08:26:07.354Z,4716.00
2019-01-31T08:27:07.346Z,4728.00
2019-01-31T08:28:17.276Z,4712.00
2019-01-31T08:29:07.321Z,4716.00
2019-01-31T08:30:07.331Z,4700.00
2019-01-31T08:31:07.336Z,4608.00
2019-01-31T08:32:07.284Z,4544.00
2019-01-31T08:33:07.276Z,4564.00
2019-01-31T08:34:07.270Z,4684.00
2019-01-31T08:35:07.291Z,4760.00
2019-01-31T08:36:07.249Z,4888.00
2019-01-31T08:37:07.273Z,5020.00
2019-01-31T08:38:07.228Z,5032.00
2019-01-31T08:39:07.212Z,4980.00
2019-01-31T08:40:07.201Z,4932.00
2019-01-31T08:41:07.194Z,4832.00
2019-01-31T08:42:07.186Z,4828.00
2019-01-31T08:43:07.246Z,4908.00
2019-01-31T08:44:07.161Z,5012.00
2019-01-31T08:45:07.194Z,5100.00
2019-01-31T08:46:07.140Z,5172.00
2019-01-31T08:47:07.133Z,5256.00
2019-01-31T08:48:07.117Z,5280.00
2019-01-31T08:49:07.447Z,5200.00
2019-01-31T08:50:07.120Z,5220.00
2019-01-31T08:51:07.086Z,5180.00
2019-01-31T08:52:07.073Z,5168.00
2019-01-31T08:53:07.065Z,5120.00
2019-01-31T08:54:07.057Z,5188.00
2019-01-31T08:55:07.087Z,5176.00
2019-01-31T08:56:07.041Z,5040.00
2019-01-31T08:57:07.097Z,4924.00
2019-01-31T08:58:07.016Z,4844.00
2019-01-31T08:59:17.564Z,4840.00
2019-01-31T09:00:06.995Z,4852.00
2019-01-31T09:01:07.018Z,4840.00
2019-01-31T09:02:06.969Z,4896.00
2019-01-31T09:03:06.960Z,4884.00
2019-01-31T09:04:07.032Z,4856.00
2019-01-31T09:05:06.941Z,4776.00
2019-01-31T09:06:07.013Z,4736.00
2019-01-31T09:07:06.969Z,4644.00
2019-01-31T09:08:06.924Z,4488.00
2019-01-31T09:09:06.893Z,4352.00
2019-01-31T09:10:06.888Z,4372.00
2019-01-31T09:11:06.873Z,4360.00
2019-01-31T09:12:14.963Z,4380.00
2019-01-31T09:13:07.895Z,4408.00
2019-01-31T09:14:06.848Z,4524.00
2019-01-31T09:15:06.841Z,4720.00
2019-01-31T09:16:06.888Z,5008.00
2019-01-31T09:17:06.811Z,5228.00
2019-01-31T09:18:06.800Z,5296.00
2019-01-31T09:19:06.855Z,5288.00
2019-01-31T09:20:06.782Z,5068.00
2019-01-31T09:21:06.779Z,4832.00
2019-01-31T09:22:06.758Z,4652.00
2019-01-31T09:23:06.759Z,4624.00
2019-01-31T09:24:06.767Z,4684.00
2019-01-31T09:25:06.790Z,4784.00
2019-01-31T09:26:06.743Z,4912.00
2019-01-31T09:27:13.712Z,5064.00
2019-01-31T09:28:06.697Z,5176.00
2019-01-31T09:29:06.686Z,5400.00
2019-01-31T09:30:06.681Z,5592.00
2019-01-31T09:31:06.836Z,5748.00
2019-01-31T09:32:06.663Z,5804.00
2019-01-31T09:33:06.644Z,5720.00
2019-01-31T09:34:06.632Z,5592.00
2019-01-31T09:35:06.635Z,5524.00
2019-01-31T09:36:06.622Z,5528.00
2019-01-31T09:37:06.646Z,5548.00
2019-01-31T09:38:06.597Z,5576.00
2019-01-31T09:39:06.577Z,5628.00
2019-01-31T09:40:06.590Z,5720.00
2019-01-31T09:41:08.488Z,5788.00
2019-01-31T09:42:06.553Z,5844.00
2019-01-31T09:43:06.567Z,5856.00
2019-01-31T09:44:06.534Z,5824.00
2019-01-31T09:45:06.523Z,5760.00
2019-01-31T09:46:06.516Z,5672.00
2019-01-31T09:47:06.496Z,5576.00
2019-01-31T09:48:06.484Z,5468.00
2019-01-31T09:49:06.527Z,5384.00
2019-01-31T09:50:06.465Z,5380.00
2019-01-31T09:51:06.451Z,5468.00
2019-01-31T09:52:06.444Z,5608.00
2019-01-31T09:53:07.366Z,5748.00
2019-01-31T09:54:06.419Z,5884.00
2019-01-31T09:55:06.431Z,5988.00
2019-01-31T09:56:06.399Z,6004.00
2019-01-31T09:57:06.399Z,5952.00
2019-01-31T09:58:16.294Z,5876.00
2019-01-31T09:59:06.371Z,5708.00
2019-01-31T10:00:06.356Z,5536.00
2019-01-31T10:01:06.393Z,5396.00
2019-01-31T10:02:06.463Z,5268.00
2019-01-31T10:03:06.334Z,5192.00
2019-01-31T10:04:06.322Z,5136.00
2019-01-31T10:05:06.301Z,5132.00
2019-01-31T10:06:06.322Z,5132.00
2019-01-31T10:07:06.324Z,5148.00
2019-01-31T10:08:06.282Z,5140.00
2019-01-31T10:09:06.267Z,5108.00
2019-01-31T10:10:06.251Z,5104.00
2019-01-31T10:11:06.264Z,5112.00
2019-01-31T10:12:06.230Z,5160.00
2019-01-31T10:13:06.274Z,5220.00
2019-01-31T10:14:06.222Z,5208.00
2019-01-31T10:15:06.205Z,5076.00
2019-01-31T10:16:06.393Z,5032.00
2019-01-31T10:17:06.195Z,4996.00
2019-01-31T10:18:06.225Z,5004.00
2019-01-31T10:19:06.177Z,5056.00
2019-01-31T10:20:06.154Z,5304.00
2019-01-31T10:21:06.193Z,5488.00
2019-01-31T10:22:06.179Z,5608.00
2019-01-31T10:23:06.134Z,5696.00
2019-01-31T10:24:06.105Z,5700.00
2019-01-31T10:25:06.189Z,5680.00
2019-01-31T10:26:06.094Z,5604.00
2019-01-31T10:27:06.163Z,5364.00
2019-01-31T10:28:06.059Z,5416.00
2019-01-31T10:29:16.471Z,5380.00
2019-01-31T10:30:06.045Z,5376.00
2019-01-31T10:31:07.011Z,5376.00
2019-01-31T10:32:06.026Z,5356.00
2019-01-31T10:33:06.020Z,5400.00
2019-01-31T10:34:06.001Z,5540.00
2019-01-31T10:35:05.983Z,5788.00
2019-01-31T10:36:05.986Z,6060.00
2019-01-31T10:37:05.984Z,6324.00
2019-01-31T10:38:05.961Z,6560.00
2019-01-31T10:39:05.951Z,6644.00
2019-01-31T10:40:05.963Z,6852.00
2019-01-31T10:41:05.921Z,6996.00
2019-01-31T10:42:05.915Z,7100.00
2019-01-31T10:43:05.975Z,7060.00
2019-01-31T10:44:05.901Z,7008.00
2019-01-31T10:45:05.889Z,7000.00
2019-01-31T10:46:05.872Z,7016.00
2019-01-31T10:47:05.868Z,7276.00
2019-01-31T10:48:05.875Z,7508.00
2019-01-31T10:49:05.856Z,7796.00
2019-01-31T10:50:05.971Z,8112.00
2019-01-31T10:51:05.836Z,8540.00
2019-01-31T10:52:05.806Z,8956.00
2019-01-31T10:53:05.792Z,9200.00
2019-01-31T10:54:05.798Z,9068.00
2019-01-31T10:55:05.813Z,8868.00
2019-01-31T10:56:05.768Z,8736.00
2019-01-31T10:57:05.765Z,8952.00
2019-01-31T10:58:05.929Z,9376.00
2019-01-31T10:59:06.407Z,9780.00
2019-01-31T11:00:16.637Z,10116.00
2019-01-31T11:01:05.717Z,10564.00
2019-01-31T11:02:05.699Z,11072.00
2019-01-31T11:03:05.687Z,11416.00
2019-01-31T11:04:05.676Z,11844.00
2019-01-31T11:05:05.679Z,11436.00
2019-01-31T11:06:05.709Z,11128.00
2019-01-31T11:07:05.646Z,10800.00
2019-01-31T11:08:05.643Z,10536.00
2019-01-31T11:09:05.636Z,10700.00
2019-01-31T11:10:05.625Z,11176.00
2019-01-31T11:11:05.603Z,11308.00
2019-01-31T11:12:05.650Z,11040.00
2019-01-31T11:13:05.584Z,10756.00
2019-01-31T11:14:05.572Z,10460.00
2019-01-31T11:15:05.581Z,10112.00
2019-01-31T11:16:05.553Z,9756.00
2019-01-31T11:17:05.548Z,9704.00
2019-01-31T11:18:05.563Z,9928.00
2019-01-31T11:19:12.612Z,10396.00
2019-01-31T11:20:06.515Z,10624.00
2019-01-31T11:21:05.524Z,10764.00
2019-01-31T11:22:05.486Z,10892.00
2019-01-31T11:23:05.485Z,10964.00
2019-01-31T11:24:05.645Z,10748.00
2019-01-31T11:25:05.465Z,10396.00
2019-01-31T11:26:05.460Z,9588.00
2019-01-31T11:27:05.438Z,8872.00
2019-01-31T11:28:05.445Z,8360.00
2019-01-31T11:29:05.426Z,7992.00
2019-01-31T11:30:05.484Z,7708.00
2019-01-31T11:31:17.114Z,7464.00
2019-01-31T11:32:05.380Z,7236.00
2019-01-31T11:33:05.394Z,7116.00
2019-01-31T11:34:05.362Z,7112.00
2019-01-31T11:35:05.355Z,7160.00
2019-01-31T11:36:05.365Z,7216.00
2019-01-31T11:37:05.357Z,7404.00
2019-01-31T11:38:05.338Z,7612.00
2019-01-31T11:39:05.321Z,7748.00
2019-01-31T11:40:05.306Z,7852.00
2019-01-31T11:41:05.301Z,7820.00
2019-01-31T11:42:05.985Z,7932.00
2019-01-31T11:43:11.479Z,8000.00
2019-01-31T11:44:06.258Z,7940.00
2019-01-31T11:45:05.275Z,7944.00
2019-01-31T11:46:05.247Z,7752.00
2019-01-31T11:47:05.225Z,7532.00
2019-01-31T11:48:05.283Z,7128.00
2019-01-31T11:49:05.210Z,6708.00
2019-01-31T11:50:05.210Z,6340.00
2019-01-31T11:51:05.222Z,6012.00
2019-01-31T11:52:05.186Z,5668.00
2019-01-31T11:53:05.251Z,5300.00
2019-01-31T11:54:05.193Z,5040.00
2019-01-31T11:55:05.148Z,4924.00
2019-01-31T11:56:05.159Z,4948.00
2019-01-31T11:57:05.787Z,5024.00
2019-01-31T11:58:05.153Z,5116.00
2019-01-31T11:59:05.112Z,5240.00
2019-01-31T12:00:05.264Z,5388.00
2019-01-31T12:01:05.083Z,5624.00
2019-01-31T12:02:15.122Z,5832.00
2019-01-31T12:03:05.068Z,5896.00
2019-01-31T12:04:05.052Z,5704.00
2019-01-31T12:05:06.029Z,5360.00
2019-01-31T12:06:05.070Z,4996.00
2019-01-31T12:07:05.014Z,4720.00
2019-01-31T12:08:05.007Z,4548.00
2019-01-31T12:09:05.001Z,4456.00
2019-01-31T12:10:04.978Z,4388.00
2019-01-31T12:11:04.974Z,4348.00
2019-01-31T12:12:05.018Z,4364.00
2019-01-31T12:13:04.950Z,4456.00
2019-01-31T12:14:04.949Z,4568.00
2019-01-31T12:15:04.941Z,4632.00
2019-01-31T12:16:04.926Z,4656.00
2019-01-31T12:17:04.912Z,4672.00
2019-01-31T12:18:04.932Z,4704.00
2019-01-31T12:19:07.428Z,4772.00
2019-01-31T12:20:04.883Z,4808.00
2019-01-31T12:21:04.865Z,4872.00
2019-01-31T12:22:04.867Z,5032.00
2019-01-31T12:23:04.847Z,5188.00
2019-01-31T12:24:04.853Z,5268.00
2019-01-31T12:25:04.833Z,5276.00
2019-01-31T12:26:04.813Z,5136.00
2019-01-31T12:27:04.798Z,5108.00
2019-01-31T12:28:04.789Z,5048.00
2019-01-31T12:29:04.788Z,5028.00